sensor_id;sensor_type;location;lat;lon;timestamp;pressure;altitude;pressure_sealevel;temperature;humidity
71976;BME280;68326;52.124;5.424;2023-05-18T00:00:07;102926.25;;;7.67;72.81
71976;BME280;68326;52.124;5.424;2023-05-18T00:02:40;102922.81;;;7.68;74.64
71976;BME280;68326;52.124;5.424;2023-05-18T00:05:07;102931.44;;;7.70;73.66
71976;BME280;68326;52.124;5.424;2023-05-18T00:07:36;102928.00;;;7.69;73.44
71976;BME280;68326;52.124;5.424;2023-05-18T00:10:03;102925.41;;;7.69;74.31
71976;BME280;68326;52.124;5.424;2023-05-18T00:12:30;102920.22;;;7.66;72.58
71976;BME280;68326;52.124;5.424;2023-05-18T00:14:56;102929.72;;;7.63;74.91
71976;BME280;68326;52.124;5.424;2023-05-18T00:17:23;102925.41;;;7.65;75.53
71976;BME280;68326;52.124;5.424;2023-05-18T00:19:49;102918.50;;;7.62;74.84
71976;BME280;68326;52.124;5.424;2023-05-18T00:22:17;102925.41;;;7.65;75.23
71976;BME280;68326;52.124;5.424;2023-05-18T00:24:45;102930.63;;;7.62;74.70
71976;BME280;68326;52.124;5.424;2023-05-18T00:27:12;102930.63;;;7.59;74.37
71976;BME280;68326;52.124;5.424;2023-05-18T00:29:38;102935.78;;;7.60;75.02
71976;BME280;68326;52.124;5.424;2023-05-18T00:32:05;102931.50;;;7.59;76.26
71976;BME280;68326;52.124;5.424;2023-05-18T00:34:32;102928.94;;;7.50;73.37
71976;BME280;68326;52.124;5.424;2023-05-18T00:36:59;102928.94;;;7.47;74.40
71976;BME280;68326;52.124;5.424;2023-05-18T00:39:25;102930.69;;;7.46;73.86
71976;BME280;68326;52.124;5.424;2023-05-18T00:41:52;102930.69;;;7.46;75.10
71976;BME280;68326;52.124;5.424;2023-05-18T00:44:18;102936.69;;;7.51;74.59
71976;BME280;68326;52.124;5.424;2023-05-18T00:46:45;102935.00;;;7.43;74.14
71976;BME280;68326;52.124;5.424;2023-05-18T00:49:11;102935.03;;;7.32;73.48
71976;BME280;68326;52.124;5.424;2023-05-18T00:51:39;102931.63;;;7.21;74.30
71976;BME280;68326;52.124;5.424;2023-05-18T00:54:06;102935.94;;;7.17;74.62
71976;BME280;68326;52.124;5.424;2023-05-18T00:56:34;102928.19;;;7.19;74.53
71976;BME280;68326;52.124;5.424;2023-05-18T00:59:02;102932.47;;;7.18;75.40
71976;BME280;68326;52.124;5.424;2023-05-18T01:01:31;102932.47;;;7.20;75.01
71976;BME280;68326;52.124;5.424;2023-05-18T01:04:02;102941.09;;;7.22;74.87
71976;BME280;68326;52.124;5.424;2023-05-18T01:06:30;102935.06;;;7.20;74.61
71976;BME280;68326;52.124;5.424;2023-05-18T01:09:03;102937.69;;;7.15;75.02
71976;BME280;68326;52.124;5.424;2023-05-18T01:11:55;102935.06;;;7.18;75.09
71976;BME280;68326;52.124;5.424;2023-05-18T01:15:12;102936.81;;;7.18;75.07
71976;BME280;68326;52.124;5.424;2023-05-18T01:18:05;102935.97;;;7.11;74.59
71976;BME280;68326;52.124;5.424;2023-05-18T01:25:46;102940.31;;;6.86;76.91
71976;BME280;68326;52.124;5.424;2023-05-18T01:28:17;102941.19;;;6.83;76.96
71976;BME280;68326;52.124;5.424;2023-05-18T01:30:45;102933.44;;;6.74;77.91
71976;BME280;68326;52.124;5.424;2023-05-18T01:33:13;102940.31;;;6.69;78.12
71976;BME280;68326;52.124;5.424;2023-05-18T01:35:39;102934.28;;;6.71;77.65
71976;BME280;68326;52.124;5.424;2023-05-18T01:38:17;102943.75;;;6.71;78.30
71976;BME280;68326;52.124;5.424;2023-05-18T01:41:01;102935.16;;;6.70;78.31
71976;BME280;68326;52.124;5.424;2023-05-18T01:43:43;102938.63;;;6.63;77.86
71976;BME280;68326;52.124;5.424;2023-05-18T01:46:31;102943.78;;;6.60;79.12
71976;BME280;68326;52.124;5.424;2023-05-18T01:49:06;102937.72;;;6.52;79.08
71976;BME280;68326;52.124;5.424;2023-05-18T01:51:40;102941.19;;;6.49;79.22
71976;BME280;68326;52.124;5.424;2023-05-18T01:54:09;102939.44;;;6.50;80.57
71976;BME280;68326;52.124;5.424;2023-05-18T01:56:38;102940.34;;;6.55;78.67
71976;BME280;68326;52.124;5.424;2023-05-18T01:59:06;102946.34;;;6.60;79.38
71976;BME280;68326;52.124;5.424;2023-05-18T02:01:33;102940.34;;;6.66;79.40
71976;BME280;68326;52.124;5.424;2023-05-18T02:03:59;102937.75;;;6.66;78.52
71976;BME280;68326;52.124;5.424;2023-05-18T02:06:27;102949.81;;;6.74;79.96
71976;BME280;68326;52.124;5.424;2023-05-18T02:08:53;102943.75;;;6.77;78.59
71976;BME280;68326;52.124;5.424;2023-05-18T02:11:20;102936.03;;;6.74;79.04
71976;BME280;68326;52.124;5.424;2023-05-18T02:13:47;102931.69;;;6.74;77.76
71976;BME280;68326;52.124;5.424;2023-05-18T02:16:13;102927.38;;;6.70;77.35
71976;BME280;68326;52.124;5.424;2023-05-18T02:18:40;102931.69;;;6.71;77.73
71976;BME280;68326;52.124;5.424;2023-05-18T02:21:06;102936.03;;;6.74;76.85
71976;BME280;68326;52.124;5.424;2023-05-18T02:23:35;102938.59;;;6.71;76.14
71976;BME280;68326;52.124;5.424;2023-05-18T02:26:02;102943.78;;;6.66;78.26
71976;BME280;68326;52.124;5.424;2023-05-18T02:28:28;102942.03;;;6.71;77.49
71976;BME280;68326;52.124;5.424;2023-05-18T02:31:09;102941.19;;;6.72;77.11
71976;BME280;68326;52.124;5.424;2023-05-18T02:33:38;102945.50;;;6.61;76.66
71976;BME280;68326;52.124;5.424;2023-05-18T02:36:09;102937.72;;;6.52;76.11
71976;BME280;68326;52.124;5.424;2023-05-18T02:38:37;102934.28;;;6.50;76.66
71976;BME280;68326;52.124;5.424;2023-05-18T02:41:03;102934.28;;;6.53;78.52
71976;BME280;68326;52.124;5.424;2023-05-18T02:43:30;102933.44;;;6.56;78.00
71976;BME280;68326;52.124;5.424;2023-05-18T02:45:57;102931.69;;;6.51;77.48
71976;BME280;68326;52.124;5.424;2023-05-18T02:48:24;102929.97;;;6.49;77.43
71976;BME280;68326;52.124;5.424;2023-05-18T02:50:51;102929.97;;;6.46;76.90
71976;BME280;68326;52.124;5.424;2023-05-18T02:53:17;102929.97;;;6.47;77.37
71976;BME280;68326;52.124;5.424;2023-05-18T02:55:44;102924.81;;;6.49;78.05
71976;BME280;68326;52.124;5.424;2023-05-18T02:58:12;102935.13;;;6.47;77.62
71976;BME280;68326;52.124;5.424;2023-05-18T03:00:39;102929.09;;;6.51;78.51
71976;BME280;68326;52.124;5.424;2023-05-18T03:03:06;102940.31;;;6.53;77.27
71976;BME280;68326;52.124;5.424;2023-05-18T03:05:36;102933.41;;;6.54;77.87
71976;BME280;68326;52.124;5.424;2023-05-18T03:08:03;102932.56;;;6.55;77.42
71976;BME280;68326;52.124;5.424;2023-05-18T03:10:30;102931.72;;;6.59;78.28
71976;BME280;68326;52.124;5.424;2023-05-18T03:12:56;102936.00;;;6.56;76.16
71976;BME280;68326;52.124;5.424;2023-05-18T03:15:23;102935.16;;;6.53;77.32
71976;BME280;68326;52.124;5.424;2023-05-18T03:17:49;102934.28;;;6.50;76.82
71976;BME280;68326;52.124;5.424;2023-05-18T03:20:17;102936.88;;;6.48;76.75
71976;BME280;68326;52.124;5.424;2023-05-18T03:22:45;102936.00;;;6.39;76.96
71976;BME280;68326;52.124;5.424;2023-05-18T03:25:11;102935.16;;;6.40;77.82
71976;BME280;68326;52.124;5.424;2023-05-18T03:27:38;102932.56;;;6.40;77.36
71976;BME280;68326;52.124;5.424;2023-05-18T03:30:05;102939.47;;;6.42;78.23
71976;BME280;68326;52.124;5.424;2023-05-18T03:32:31;102936.84;;;6.39;76.24
71976;BME280;68326;52.124;5.424;2023-05-18T03:34:59;102938.59;;;6.34;77.14
71976;BME280;68326;52.124;5.424;2023-05-18T03:37:26;102940.28;;;6.30;77.67
71976;BME280;68326;52.124;5.424;2023-05-18T03:39:53;102931.69;;;6.25;77.86
71976;BME280;68326;52.124;5.424;2023-05-18T03:42:20;102937.72;;;6.26;78.53
71976;BME280;68326;52.124;5.424;2023-05-18T03:44:47;102945.47;;;6.27;78.20
71976;BME280;68326;52.124;5.424;2023-05-18T03:47:13;102948.94;;;6.29;80.04
71976;BME280;68326;52.124;5.424;2023-05-18T03:49:40;102940.31;;;6.27;78.88
71976;BME280;68326;52.124;5.424;2023-05-18T03:52:06;102937.69;;;6.29;78.68
71976;BME280;68326;52.124;5.424;2023-05-18T03:54:33;102938.59;;;6.29;79.54
71976;BME280;68326;52.124;5.424;2023-05-18T03:56:59;102941.16;;;6.26;77.62
71976;BME280;68326;52.124;5.424;2023-05-18T03:59:26;102941.16;;;6.26;77.59
71976;BME280;68326;52.124;5.424;2023-05-18T04:01:53;102943.72;;;6.20;76.85
71976;BME280;68326;52.124;5.424;2023-05-18T04:04:19;102943.75;;;6.22;78.22
71976;BME280;68326;52.124;5.424;2023-05-18T04:06:48;102939.44;;;6.24;77.83
71976;BME280;68326;52.124;5.424;2023-05-18T04:09:17;102948.91;;;6.26;78.96
71976;BME280;68326;52.124;5.424;2023-05-18T04:11:44;102947.19;;;6.28;79.28
71976;BME280;68326;52.124;5.424;2023-05-18T04:14:11;102951.50;;;6.28;79.66
71976;BME280;68326;52.124;5.424;2023-05-18T04:16:37;102950.63;;;6.24;78.71
71976;BME280;68326;52.124;5.424;2023-05-18T04:19:04;102958.41;;;6.27;78.12
71976;BME280;68326;52.124;5.424;2023-05-18T04:21:33;102954.94;;;6.25;77.99
71976;BME280;68326;52.124;5.424;2023-05-18T04:24:02;102954.94;;;6.22;78.32
71976;BME280;68326;52.124;5.424;2023-05-18T04:26:32;102956.69;;;6.25;78.90
71976;BME280;68326;52.124;5.424;2023-05-18T04:28:59;102954.94;;;6.25;78.17
71976;BME280;68326;52.124;5.424;2023-05-18T04:31:26;102954.97;;;6.27;78.41
71976;BME280;68326;52.124;5.424;2023-05-18T04:33:53;102966.16;;;6.30;77.61
71976;BME280;68326;52.124;5.424;2023-05-18T04:36:20;102968.75;;;6.32;78.41
71976;BME280;68326;52.124;5.424;2023-05-18T04:38:51;102958.41;;;6.32;77.82
71976;BME280;68326;52.124;5.424;2023-05-18T04:41:18;102961.88;;;6.39;77.85
71976;BME280;68326;52.124;5.424;2023-05-18T04:43:47;102967.03;;;6.45;77.65
71976;BME280;68326;52.124;5.424;2023-05-18T04:46:15;102970.50;;;6.53;77.51
71976;BME280;68326;52.124;5.424;2023-05-18T04:48:42;102971.38;;;6.55;78.49
71976;BME280;68326;52.124;5.424;2023-05-18T04:51:09;102970.50;;;6.56;77.71
71976;BME280;68326;52.124;5.424;2023-05-18T04:53:35;102969.66;;;6.62;78.51
71976;BME280;68326;52.124;5.424;2023-05-18T04:56:04;102978.25;;;6.67;79.35
71976;BME280;68326;52.124;5.424;2023-05-18T04:58:33;102979.13;;;6.70;77.66
71976;BME280;68326;52.124;5.424;2023-05-18T05:01:00;102978.28;;;6.70;77.53
71976;BME280;68326;52.124;5.424;2023-05-18T05:03:27;102985.16;;;6.72;77.36
71976;BME280;68326;52.124;5.424;2023-05-18T05:05:54;102981.72;;;6.77;77.97
71976;BME280;68326;52.124;5.424;2023-05-18T05:08:21;102986.03;;;6.82;77.20
71976;BME280;68326;52.124;5.424;2023-05-18T05:10:47;102979.13;;;6.90;77.70
71976;BME280;68326;52.124;5.424;2023-05-18T05:13:14;102997.25;;;7.04;78.06
71976;BME280;68326;52.124;5.424;2023-05-18T05:15:40;102990.31;;;7.17;76.74
71976;BME280;68326;52.124;5.424;2023-05-18T05:18:07;102983.41;;;7.27;77.37
71976;BME280;68326;52.124;5.424;2023-05-18T05:20:33;102991.13;;;7.45;77.27
71976;BME280;68326;52.124;5.424;2023-05-18T05:23:00;102983.34;;;7.53;75.61
71976;BME280;68326;52.124;5.424;2023-05-18T05:25:27;102972.06;;;7.65;75.76
71976;BME280;68326;52.124;5.424;2023-05-18T05:27:54;102965.97;;;7.73;74.38
71976;BME280;68326;52.124;5.424;2023-05-18T05:30:20;102978.03;;;7.81;75.03
71976;BME280;68326;52.124;5.424;2023-05-18T05:32:47;102982.28;;;7.92;74.20
71976;BME280;68326;52.124;5.424;2023-05-18T05:35:13;102988.34;;;7.99;74.00
71976;BME280;68326;52.124;5.424;2023-05-18T05:37:40;102979.66;;;8.03;73.09
71976;BME280;68326;52.124;5.424;2023-05-18T05:40:07;102984.88;;;8.02;73.39
71976;BME280;68326;52.124;5.424;2023-05-18T05:42:35;102982.31;;;7.95;73.43
71976;BME280;68326;52.124;5.424;2023-05-18T05:45:01;102980.56;;;7.94;73.84
71976;BME280;68326;52.124;5.424;2023-05-18T05:47:28;102983.13;;;8.01;74.35
71976;BME280;68326;52.124;5.424;2023-05-18T05:49:54;102973.56;;;8.07;74.02
71976;BME280;68326;52.124;5.424;2023-05-18T05:52:21;102980.47;;;8.16;74.93
71976;BME280;68326;52.124;5.424;2023-05-18T05:54:47;102975.22;;;8.25;75.33
71976;BME280;68326;52.124;5.424;2023-05-18T05:57:14;102973.47;;;8.29;74.07
71976;BME280;68326;52.124;5.424;2023-05-18T05:59:41;102973.44;;;8.33;73.28
71976;BME280;68326;52.124;5.424;2023-05-18T06:02:07;102977.75;;;8.34;73.41
71976;BME280;68326;52.124;5.424;2023-05-18T06:04:34;102980.34;;;8.42;73.72
71976;BME280;68326;52.124;5.424;2023-05-18T06:07:01;102985.47;;;8.47;73.35
71976;BME280;68326;52.124;5.424;2023-05-18T06:09:27;102977.69;;;8.48;72.70
71976;BME280;68326;52.124;5.424;2023-05-18T06:11:54;102981.94;;;8.59;73.35
71976;BME280;68326;52.124;5.424;2023-05-18T06:14:20;102978.44;;;8.64;72.14
71976;BME280;68326;52.124;5.424;2023-05-18T06:16:47;102976.53;;;8.85;72.17
71976;BME280;68326;52.124;5.424;2023-05-18T06:19:14;102978.88;;;9.11;71.57
71976;BME280;68326;52.124;5.424;2023-05-18T06:21:40;102989.94;;;9.33;67.59
71976;BME280;68326;52.124;5.424;2023-05-18T06:24:07;102987.09;;;9.54;68.48
71976;BME280;68326;52.124;5.424;2023-05-18T06:26:34;102993.09;;;9.58;68.34
71976;BME280;68326;52.124;5.424;2023-05-18T06:29:00;102995.81;;;9.49;69.10
71976;BME280;68326;52.124;5.424;2023-05-18T06:31:27;102994.13;;;9.46;66.75
71976;BME280;68326;52.124;5.424;2023-05-18T06:33:55;102994.91;;;9.54;67.10
71976;BME280;68326;52.124;5.424;2023-05-18T06:36:22;102993.00;;;9.67;66.81
71976;BME280;68326;52.124;5.424;2023-05-18T06:38:48;102996.41;;;9.72;67.34
71976;BME280;68326;52.124;5.424;2023-05-18T06:41:15;102993.78;;;9.75;66.98
71976;BME280;68326;52.124;5.424;2023-05-18T06:43:41;102993.66;;;9.86;65.65
71976;BME280;68326;52.124;5.424;2023-05-18T06:46:08;102994.38;;;9.96;67.79
71976;BME280;68326;52.124;5.424;2023-05-18T06:48:35;102989.94;;;10.03;65.83
71976;BME280;68326;52.124;5.424;2023-05-18T06:51:02;102997.56;;;10.18;65.73
71976;BME280;68326;52.124;5.424;2023-05-18T06:53:30;103004.25;;;10.37;65.08
71976;BME280;68326;52.124;5.424;2023-05-18T06:55:57;103007.53;;;10.50;65.17
71976;BME280;68326;52.124;5.424;2023-05-18T06:58:23;103001.34;;;10.56;64.82
71976;BME280;68326;52.124;5.424;2023-05-18T07:00:50;103007.31;;;10.64;64.02
71976;BME280;68326;52.124;5.424;2023-05-18T07:03:16;103003.00;;;10.63;63.25
71976;BME280;68326;52.124;5.424;2023-05-18T07:05:43;103002.94;;;10.65;62.38
71976;BME280;68326;52.124;5.424;2023-05-18T07:08:10;103006.44;;;10.65;61.37
71976;BME280;68326;52.124;5.424;2023-05-18T07:10:37;103011.59;;;10.67;60.84
71976;BME280;68326;52.124;5.424;2023-05-18T07:13:03;103007.19;;;10.72;59.85
71976;BME280;68326;52.124;5.424;2023-05-18T07:15:30;103012.41;;;10.70;61.98
71976;BME280;68326;52.124;5.424;2023-05-18T07:17:56;103016.66;;;10.77;60.71
71976;BME280;68326;52.124;5.424;2023-05-18T07:20:23;103013.06;;;10.83;60.82
71976;BME280;68326;52.124;5.424;2023-05-18T07:22:52;103017.53;;;10.76;62.50
71976;BME280;68326;52.124;5.424;2023-05-18T07:25:21;103013.34;;;10.68;63.37
71976;BME280;68326;52.124;5.424;2023-05-18T07:27:48;103013.50;;;10.55;60.66
71976;BME280;68326;52.124;5.424;2023-05-18T07:30:17;103014.50;;;10.50;60.16
71976;BME280;68326;52.124;5.424;2023-05-18T07:32:43;103013.69;;;10.45;61.09
71976;BME280;68326;52.124;5.424;2023-05-18T07:35:10;103021.38;;;10.52;61.99
71976;BME280;68326;52.124;5.424;2023-05-18T07:37:37;103011.06;;;10.45;59.99
71976;BME280;68326;52.124;5.424;2023-05-18T07:40:04;103020.63;;;10.44;60.27
71976;BME280;68326;52.124;5.424;2023-05-18T07:42:31;103021.66;;;10.34;60.00
71976;BME280;68326;52.124;5.424;2023-05-18T07:44:59;103022.44;;;10.39;61.18
71976;BME280;68326;52.124;5.424;2023-05-18T07:47:25;103019.78;;;10.42;62.28
71976;BME280;68326;52.124;5.424;2023-05-18T07:49:52;103023.22;;;10.46;60.80
71976;BME280;68326;52.124;5.424;2023-05-18T07:52:18;103016.28;;;10.43;59.42
71976;BME280;68326;52.124;5.424;2023-05-18T07:54:44;103020.56;;;10.49;60.52
71976;BME280;68326;52.124;5.424;2023-05-18T07:57:11;103021.31;;;10.55;61.10
71976;BME280;68326;52.124;5.424;2023-05-18T07:59:38;103034.25;;;10.60;61.34
71976;BME280;68326;52.124;5.424;2023-05-18T08:02:05;103027.28;;;10.62;62.34
71976;BME280;68326;52.124;5.424;2023-05-18T08:04:32;103030.56;;;10.75;63.47
71976;BME280;68326;52.124;5.424;2023-05-18T08:06:58;103030.53;;;10.78;60.31
71976;BME280;68326;52.124;5.424;2023-05-18T08:09:26;103031.28;;;10.86;60.94
71976;BME280;68326;52.124;5.424;2023-05-18T08:11:52;103028.50;;;10.97;60.71
71976;BME280;68326;52.124;5.424;2023-05-18T08:14:19;103029.06;;;11.13;61.25
71976;BME280;68326;52.124;5.424;2023-05-18T08:16:46;103029.88;;;11.18;60.31
71976;BME280;68326;52.124;5.424;2023-05-18T08:19:12;103027.19;;;11.22;61.68
71976;BME280;68326;52.124;5.424;2023-05-18T08:21:39;103028.75;;;11.31;60.36
71976;BME280;68326;52.124;5.424;2023-05-18T08:24:06;103038.38;;;11.28;58.71
71976;BME280;68326;52.124;5.424;2023-05-18T08:26:32;103026.25;;;11.27;58.31
71976;BME280;68326;52.124;5.424;2023-05-18T08:28:59;103032.28;;;11.29;58.85
71976;BME280;68326;52.124;5.424;2023-05-18T08:31:26;103022.81;;;11.23;57.49
71976;BME280;68326;52.124;5.424;2023-05-18T08:33:52;103022.72;;;11.29;56.46
71976;BME280;68326;52.124;5.424;2023-05-18T08:36:19;103030.06;;;11.54;58.81
71976;BME280;68326;52.124;5.424;2023-05-18T08:38:46;103032.84;;;11.90;58.53
71976;BME280;68326;52.124;5.424;2023-05-18T08:41:19;103028.53;;;11.87;56.88
71976;BME280;68326;52.124;5.424;2023-05-18T08:43:53;103018.69;;;12.03;58.86
71976;BME280;68326;52.124;5.424;2023-05-18T08:46:44;103021.41;;;12.37;58.63
71976;BME280;68326;52.124;5.424;2023-05-18T08:49:17;103010.94;;;12.39;55.40
71976;BME280;68326;52.124;5.424;2023-05-18T08:51:45;103027.63;;;12.30;57.98
71976;BME280;68326;52.124;5.424;2023-05-18T08:54:20;103013.59;;;12.36;56.55
71976;BME280;68326;52.124;5.424;2023-05-18T08:56:47;103010.31;;;12.63;55.75
71976;BME280;68326;52.124;5.424;2023-05-18T08:59:20;102997.53;;;12.87;54.87
71976;BME280;68326;52.124;5.424;2023-05-18T09:01:48;103012.88;;;13.01;56.06
71976;BME280;68326;52.124;5.424;2023-05-18T09:04:17;103002.59;;;12.95;54.07
71976;BME280;68326;52.124;5.424;2023-05-18T09:06:44;103010.06;;;12.74;55.42
71976;BME280;68326;52.124;5.424;2023-05-18T09:09:12;102998.59;;;12.81;55.05
71976;BME280;68326;52.124;5.424;2023-05-18T09:11:39;102997.63;;;12.84;55.32
71976;BME280;68326;52.124;5.424;2023-05-18T09:14:07;102993.28;;;12.83;54.95
71976;BME280;68326;52.124;5.424;2023-05-18T09:16:33;102995.72;;;12.91;57.44
71976;BME280;68326;52.124;5.424;2023-05-18T09:19:00;102991.50;;;12.85;56.30
71976;BME280;68326;52.124;5.424;2023-05-18T09:21:29;102989.91;;;12.79;55.65
71976;BME280;68326;52.124;5.424;2023-05-18T09:23:57;102980.03;;;12.91;54.09
71976;BME280;68326;52.124;5.424;2023-05-18T09:26:24;102984.47;;;12.87;55.65
71976;BME280;68326;52.124;5.424;2023-05-18T09:28:52;102987.22;;;12.82;55.04
71976;BME280;68326;52.124;5.424;2023-05-18T09:31:20;102981.31;;;12.74;55.10
71976;BME280;68326;52.124;5.424;2023-05-18T09:33:48;102976.78;;;12.81;54.83
71976;BME280;68326;52.124;5.424;2023-05-18T09:36:15;102978.38;;;12.88;54.32
71976;BME280;68326;52.124;5.424;2023-05-18T09:38:44;102976.63;;;12.89;54.90
71976;BME280;68326;52.124;5.424;2023-05-18T09:41:16;102976.13;;;13.07;54.27
71976;BME280;68326;52.124;5.424;2023-05-18T09:43:44;102979.22;;;13.21;54.37
71976;BME280;68326;52.124;5.424;2023-05-18T09:46:13;102976.28;;;13.35;53.61
71976;BME280;68326;52.124;5.424;2023-05-18T09:48:41;102969.16;;;13.40;53.71
71976;BME280;68326;52.124;5.424;2023-05-18T09:51:12;102979.09;;;13.59;54.70
71976;BME280;68326;52.124;5.424;2023-05-18T09:54:02;102976.78;;;13.78;54.46
71976;BME280;68326;52.124;5.424;2023-05-18T09:56:35;102973.69;;;13.65;51.32
71976;BME280;68326;52.124;5.424;2023-05-18T09:59:13;102972.84;;;13.64;52.00
71976;BME280;68326;52.124;5.424;2023-05-18T10:01:56;102969.59;;;13.56;52.22
71976;BME280;68326;52.124;5.424;2023-05-18T10:04:25;102968.13;;;13.46;52.42
71976;BME280;68326;52.124;5.424;2023-05-18T10:06:59;102971.34;;;13.56;52.88
71976;BME280;68326;52.124;5.424;2023-05-18T10:09:27;102968.41;;;13.66;52.15
71976;BME280;68326;52.124;5.424;2023-05-18T10:11:53;102969.03;;;13.75;52.70
71976;BME280;68326;52.124;5.424;2023-05-18T10:14:23;102958.53;;;13.76;51.42
71976;BME280;68326;52.124;5.424;2023-05-18T10:16:54;102952.25;;;13.82;53.13
71976;BME280;68326;52.124;5.424;2023-05-18T10:19:33;102952.47;;;14.02;53.52
71976;BME280;68326;52.124;5.424;2023-05-18T10:22:02;102953.88;;;13.86;51.64
71976;BME280;68326;52.124;5.424;2023-05-18T10:24:30;102952.22;;;13.83;53.22
71976;BME280;68326;52.124;5.424;2023-05-18T10:27:01;102946.66;;;13.94;52.91
71976;BME280;68326;52.124;5.424;2023-05-18T10:29:31;102946.97;;;14.12;54.78
71976;BME280;68326;52.124;5.424;2023-05-18T10:32:00;102948.13;;;14.03;50.62
71976;BME280;68326;52.124;5.424;2023-05-18T10:34:33;102943.38;;;14.16;49.03
71976;BME280;68326;52.124;5.424;2023-05-18T10:37:01;102938.63;;;14.27;51.02
71976;BME280;68326;52.124;5.424;2023-05-18T10:39:32;102939.13;;;14.38;50.96
71976;BME280;68326;52.124;5.424;2023-05-18T10:41:59;102939.72;;;14.46;52.28
71976;BME280;68326;52.124;5.424;2023-05-18T10:44:26;102926.81;;;14.68;51.41
71976;BME280;68326;52.124;5.424;2023-05-18T10:46:54;102938.31;;;14.64;50.70
71976;BME280;68326;52.124;5.424;2023-05-18T10:49:21;102941.50;;;14.73;49.71
71976;BME280;68326;52.124;5.424;2023-05-18T10:51:53;102931.97;;;14.70;49.57
71976;BME280;68326;52.124;5.424;2023-05-18T10:54:21;102931.69;;;14.79;49.71
71976;BME280;68326;52.124;5.424;2023-05-18T10:56:51;102927.25;;;14.81;49.13
71976;BME280;68326;52.124;5.424;2023-05-18T10:59:19;102923.38;;;14.92;48.48
71976;BME280;68326;52.124;5.424;2023-05-18T11:01:49;102927.28;;;15.05;51.99
71976;BME280;68326;52.124;5.424;2023-05-18T11:04:26;102930.59;;;15.10;49.94
71976;BME280;68326;52.124;5.424;2023-05-18T11:06:58;102929.75;;;15.09;48.41
71976;BME280;68326;52.124;5.424;2023-05-18T11:09:27;102922.38;;;15.19;49.35
71976;BME280;68326;52.124;5.424;2023-05-18T11:11:58;102923.66;;;15.33;48.84
71976;BME280;68326;52.124;5.424;2023-05-18T11:14:27;102924.28;;;15.39;46.94
71976;BME280;68326;52.124;5.424;2023-05-18T11:17:35;102924.53;;;15.55;48.78
71976;BME280;68326;52.124;5.424;2023-05-18T11:22:47;102919.25;;;15.80;45.62
71976;BME280;68326;52.124;5.424;2023-05-18T11:27:55;102908.22;;;15.94;46.05
71976;BME280;68326;52.124;5.424;2023-05-18T11:30:29;102901.38;;;15.90;46.04
71976;BME280;68326;52.124;5.424;2023-05-18T11:33:10;102907.22;;;15.97;47.96
71976;BME280;68326;52.124;5.424;2023-05-18T11:36:12;102907.84;;;16.46;48.10
71976;BME280;68326;52.124;5.424;2023-05-18T11:38:51;102899.22;;;16.42;46.67
71976;BME280;68326;52.124;5.424;2023-05-18T11:44:19;102896.75;;;16.60;48.09
71976;BME280;68326;52.124;5.424;2023-05-18T11:49:29;102891.06;;;16.48;47.48
71976;BME280;68326;52.124;5.424;2023-05-18T11:54:27;102893.72;;;16.28;44.90
71976;BME280;68326;52.124;5.424;2023-05-18T11:56:54;102881.66;;;16.22;45.69
71976;BME280;68326;52.124;5.424;2023-05-18T11:59:31;102885.94;;;16.25;47.33
71976;BME280;68326;52.124;5.424;2023-05-18T12:02:00;102874.25;;;16.12;48.43
71976;BME280;68326;52.124;5.424;2023-05-18T12:04:28;102883.56;;;16.19;49.14
71976;BME280;68326;52.124;5.424;2023-05-18T12:06:55;102879.00;;;16.24;45.48
71976;BME280;68326;52.124;5.424;2023-05-18T12:09:23;102867.09;;;16.15;44.54
71976;BME280;68326;52.124;5.424;2023-05-18T12:11:51;102868.25;;;16.08;44.55
71976;BME280;68326;52.124;5.424;2023-05-18T12:14:18;102867.59;;;16.23;48.14
71976;BME280;68326;52.124;5.424;2023-05-18T12:16:46;102868.81;;;16.37;48.82
71976;BME280;68326;52.124;5.424;2023-05-18T12:19:14;102856.38;;;16.40;47.39
71976;BME280;68326;52.124;5.424;2023-05-18T12:21:42;102862.16;;;16.48;48.73
71976;BME280;68326;52.124;5.424;2023-05-18T12:24:09;102861.00;;;16.56;45.41
71976;BME280;68326;52.124;5.424;2023-05-18T12:26:35;102855.75;;;16.56;46.10
71976;BME280;68326;52.124;5.424;2023-05-18T12:29:03;102856.25;;;16.43;46.70
71976;BME280;68326;52.124;5.424;2023-05-18T12:31:30;102859.88;;;16.41;45.32
71976;BME280;68326;52.124;5.424;2023-05-18T12:33:56;102854.69;;;16.39;46.41
71976;BME280;68326;52.124;5.424;2023-05-18T12:36:24;102852.38;;;16.52;46.26
71976;BME280;68326;52.124;5.424;2023-05-18T12:38:52;102844.69;;;16.47;45.66
71976;BME280;68326;52.124;5.424;2023-05-18T12:41:26;102845.88;;;16.61;46.82
71976;BME280;68326;52.124;5.424;2023-05-18T12:43:54;102846.91;;;16.57;48.71
71976;BME280;68326;52.124;5.424;2023-05-18T12:46:21;102849.28;;;16.63;47.79
71976;BME280;68326;52.124;5.424;2023-05-18T12:48:56;102847.03;;;16.74;47.01
71976;BME280;68326;52.124;5.424;2023-05-18T12:51:24;102837.78;;;16.65;47.95
71976;BME280;68326;52.124;5.424;2023-05-18T12:53:56;102832.41;;;16.68;47.99
71976;BME280;68326;52.124;5.424;2023-05-18T12:56:22;102826.53;;;16.82;48.04
71976;BME280;68326;52.124;5.424;2023-05-18T12:58:56;102841.84;;;16.93;46.70
71976;BME280;68326;52.124;5.424;2023-05-18T13:01:23;102840.63;;;16.81;45.75
71976;BME280;68326;52.124;5.424;2023-05-18T13:03:57;102839.72;;;16.62;45.66
71976;BME280;68326;52.124;5.424;2023-05-18T13:06:24;102831.09;;;16.58;44.70
71976;BME280;68326;52.124;5.424;2023-05-18T13:08:54;102831.34;;;16.73;47.45
71976;BME280;68326;52.124;5.424;2023-05-18T13:11:24;102822.78;;;16.67;46.59
71976;BME280;68326;52.124;5.424;2023-05-18T13:14:03;102834.31;;;16.65;45.98
71976;BME280;68326;52.124;5.424;2023-05-18T13:16:31;102828.72;;;16.52;45.07
71976;BME280;68326;52.124;5.424;2023-05-18T13:19:01;102823.75;;;16.46;45.92
71976;BME280;68326;52.124;5.424;2023-05-18T13:21:28;102830.63;;;16.48;48.69